TLPC/SLU METAR and TAF weather

Enter ICAO airport designator
Station Type Date Time Source
TLPC METAR 2019/06/26 18:00 UTC NOAA

TLPC 261800Z 09010G21 KT 9999 BKN023 30/24 Q1015 NOSIG


Station Type Date Time Source
TLPC Decoded METAR 2019/06/26 18:00 UTC NOAA

Vigie, Saint Lucia (TLPC) 14-01N 061-00W 2M
Jun 26, 2019 - 02:00 PM EDT / 2019.06.26 1800 UTC
Visibility: greater than 7 mile(s):0
Sky conditions: mostly cloudy
Temperature: 86 F (30 C)
Heat index: 95.0 F (35.0 C):1
Dew Point: 75 F (24 C)
Relative Humidity: 70%
Pressure (altimeter): 29.97 in. Hg (1015 hPa)
ob: TLPC 261800Z 09010G21 KT 9999 BKN023 30/24 Q1015 NOSIG
cycle: 18

Station Type Date Time Source
TLPC TAF 2019/06/26 18:27 UTC NOAA

TAF TAF TLPC 261700Z 2618/2718 08010KT 9999 SCT026
TEMPO 2700/2718 SHRA BKN018

Example: see airport list